Time;durP1;ratioP1;P1;durP2;ratioP2;P2;SDS_P1;SDS_P2;PMS_P1;PMS_P2;Temp;Humidity;BMP_temperature;BMP_pressure;BME280_temperature;BME280_humidity;BME280_pressure;Samples;Min_cycle;Max_cycle;Signal;HPM_P1;HPM_P2
2022/03/28 00:01:15;;;;;;;18.35;14.80;;;9.10;94.80;;;;;;5046810;28;20423;-88
2022/03/28 00:03:41;;;;;;;16.58;13.65;;;8.90;94.80;;;;;;5056650;28;20382;-88
2022/03/28 00:06:07;;;;;;;17.20;13.63;;;9.10;95.10;;;;;;5056481;28;20408;-87
2022/03/28 00:08:34;;;;;;;21.07;13.83;;;9.40;94.90;;;;;;5055515;28;20462;-88
2022/03/28 00:11:00;;;;;;;15.45;13.30;;;9.70;94.50;;;;;;5056850;28;20522;-88
2022/03/28 00:13:25;;;;;;;15.93;13.80;;;9.70;94.20;;;;;;5056139;28;20476;-88
2022/03/28 00:15:52;;;;;;;16.73;14.07;;;9.60;94.30;;;;;;5056466;28;20764;-88
2022/03/28 00:18:17;;;;;;;16.20;14.07;;;9.80;94.40;;;;;;5054315;28;20404;-88
2022/03/28 00:20:46;;;;;;;16.17;13.50;;;10.50;94.60;;;;;;5055788;28;20386;-88
2022/03/28 00:23:12;;;;;;;18.47;14.70;;;9.90;94.20;;;;;;5056159;28;20388;-88
2022/03/28 00:25:40;;;;;;;15.63;13.73;;;10.20;93.50;;;;;;5056220;28;20461;-88
2022/03/28 00:28:06;;;;;;;18.60;14.20;;;10.30;93.90;;;;;;5055262;28;20385;-88
2022/03/28 00:30:32;;;;;;;17.92;14.02;;;10.10;94.60;;;;;;5058024;28;20732;-88
2022/03/28 00:32:59;;;;;;;16.67;14.17;;;10.00;94.20;;;;;;5055113;28;20432;-88
2022/03/28 00:35:25;;;;;;;16.33;13.93;;;10.70;94.70;;;;;;5056129;28;20427;-87
2022/03/28 00:37:51;;;;;;;16.80;13.68;;;9.90;94.40;;;;;;5054428;28;20404;-87
2022/03/28 00:40:17;;;;;;;16.53;13.90;;;9.80;94.90;;;;;;5055960;28;20420;-87
2022/03/28 00:42:43;;;;;;;14.85;13.25;;;9.80;94.70;;;;;;5055937;28;20385;-88
2022/03/28 00:45:09;;;;;;;17.02;14.70;;;9.70;95.20;;;;;;5069013;28;20412;-86
2022/03/28 00:47:35;;;;;;;15.90;14.07;;;9.60;95.40;;;;;;5056489;28;20451;-87
2022/03/28 00:50:01;;;;;;;18.90;14.85;;;9.60;95.10;;;;;;5054328;28;20386;-87
2022/03/28 00:52:27;;;;;;;17.23;14.38;;;9.60;94.90;;;;;;5055529;28;20385;-88
2022/03/28 00:54:53;;;;;;;18.23;14.48;;;9.60;94.90;;;;;;5056106;28;20397;-87
2022/03/28 00:57:19;;;;;;;18.77;14.33;;;9.50;95.60;;;;;;5054444;28;20412;-87
2022/03/28 00:59:44;;;;;;;18.77;14.00;;;9.40;95.90;;;;;;5055839;28;20398;-87
2022/03/28 01:02:10;;;;;;;19.23;14.20;;;9.40;96.10;;;;;;5055788;28;20748;-87
2022/03/28 01:04:37;;;;;;;17.73;14.10;;;9.30;96.10;;;;;;5055879;28;20389;-87
2022/03/28 01:07:07;;;;;;;15.77;14.13;;;9.10;96.10;;;;;;5054156;28;20468;-87
2022/03/28 01:09:33;;;;;;;17.88;13.52;;;9.10;96.10;;;;;;5054700;28;20756;-87
2022/03/28 01:11:59;;;;;;;15.50;13.60;;;9.20;95.80;;;;;;5055955;28;20400;-87
2022/03/28 01:14:26;;;;;;;15.85;13.50;;;9.30;95.80;;;;;;5055446;28;20390;-87
2022/03/28 01:19:37;;;;;;;15.10;13.18;;;9.70;96.70;;;;;;5050135;28;20475;-87
2022/03/28 01:22:03;;;;;;;16.00;13.50;;;9.00;96.40;;;;;;5055415;28;20425;-87
2022/03/28 01:24:30;;;;;;;17.42;13.50;;;9.10;96.40;;;;;;5053778;28;20396;-87
2022/03/28 01:26:57;;;;;;;17.90;13.17;;;9.10;96.10;;;;;;5055275;28;20382;-87
2022/03/28 01:29:23;;;;;;;15.07;12.93;;;9.10;96.10;;;;;;5055743;28;20503;-87
2022/03/28 01:31:48;;;;;;;17.52;12.82;;;9.00;96.20;;;;;;5055160;28;20523;-87
2022/03/28 01:34:21;;;;;;;14.23;12.05;;;9.00;95.90;;;;;;5054830;28;20906;-87
2022/03/28 01:36:48;;;;;;;15.10;13.07;;;8.90;96.20;;;;;;5053110;28;20863;-87
2022/03/28 01:39:14;;;;;;;16.48;12.90;;;9.00;96.30;;;;;;5049894;28;21383;-87
2022/03/28 01:41:40;;;;;;;16.13;13.13;;;9.00;96.10;;;;;;5047460;28;20389;-86
2022/03/28 01:44:07;;;;;;;15.13;12.98;;;9.10;95.80;;;;;;5050885;28;20396;-87
2022/03/28 01:46:44;;;;;;;14.27;12.77;;;9.10;97.00;;;;;;5052329;28;20378;-86
2022/03/28 01:49:10;;;;;;;16.27;12.53;;;8.90;96.30;;;;;;5053160;28;20403;-87
2022/03/28 01:51:36;;;;;;;14.93;12.45;;;8.80;96.50;;;;;;5056182;28;20392;-87
2022/03/28 01:54:02;;;;;;;14.17;12.67;;;8.90;96.30;;;;;;5055106;28;20382;-87
2022/03/28 01:56:28;;;;;;;14.67;13.03;;;8.70;96.00;;;;;;5036401;28;20414;-87
2022/03/28 01:58:54;;;;;;;14.57;12.60;;;8.80;96.60;;;;;;5052492;28;20768;-87
2022/03/28 02:01:19;;;;;;;16.35;12.45;;;8.80;96.50;;;;;;5054078;28;20381;-87
2022/03/28 02:03:45;;;;;;;18.03;13.27;;;8.90;96.20;;;;;;5054122;28;20417;-87
2022/03/28 02:06:11;;;;;;;17.17;12.52;;;8.90;95.70;;;;;;5054058;28;20503;-87
2022/03/28 02:08:37;;;;;;;16.27;12.82;;;8.80;96.10;;;;;;5052295;28;20734;-87
2022/03/28 02:11:02;;;;;;;15.88;12.93;;;8.70;97.20;;;;;;5054072;28;20385;-86
2022/03/28 02:13:28;;;;;;;15.10;12.33;;;9.00;97.10;;;;;;5048850;28;20386;-88
2022/03/28 02:15:53;;;;;;;15.10;13.47;;;9.20;97.10;;;;;;5053994;28;20458;-87
2022/03/28 02:18:19;;;;;;;16.73;12.80;;;8.50;96.40;;;;;;5053714;28;20401;-88
2022/03/28 02:20:45;;;;;;;16.25;12.60;;;8.50;97.00;;;;;;5053406;28;20872;-87
2022/03/28 02:23:10;;;;;;;17.40;12.38;;;9.00;96.80;;;;;;5053881;28;20382;-87
2022/03/28 02:25:38;;;;;;;15.27;12.13;;;8.50;97.50;;;;;;5061415;28;20800;-87
2022/03/28 02:28:05;;;;;;;14.70;12.65;;;8.40;97.50;;;;;;5060201;28;20401;-88
2022/03/28 02:30:31;;;;;;;14.93;12.60;;;8.30;97.30;;;;;;5056364;28;20386;-87
2022/03/28 02:32:58;;;;;;;14.10;12.60;;;8.20;97.30;;;;;;5053624;28;20767;-87
2022/03/28 02:35:24;;;;;;;15.05;13.10;;;8.10;97.80;;;;;;5053635;28;20417;-87
2022/03/28 02:37:50;;;;;;;14.05;12.45;;;8.20;97.60;;;;;;5063638;28;20403;-87
2022/03/28 02:40:16;;;;;;;16.90;13.15;;;8.70;97.80;;;;;;5060008;28;20396;-87
2022/03/28 02:42:42;;;;;;;15.07;13.20;;;8.10;98.00;;;;;;5064286;28;20400;-87
2022/03/28 02:45:09;;;;;;;15.35;12.60;;;8.10;97.60;;;;;;5056537;28;20393;-87
2022/03/28 02:47:35;;;;;;;14.35;12.80;;;8.20;97.30;;;;;;5057898;28;20394;-87
2022/03/28 02:50:03;;;;;;;17.60;12.63;;;8.30;97.60;;;;;;5057129;28;20385;-87
2022/03/28 02:52:28;;;;;;;14.63;12.80;;;8.10;98.00;;;;;;5058343;28;20479;-87
2022/03/28 02:54:54;;;;;;;15.77;13.27;;;8.00;97.80;;;;;;5057627;28;20416;-87
2022/03/28 02:57:20;;;;;;;15.00;12.65;;;7.90;97.40;;;;;;5059526;28;20406;-87
2022/03/28 02:59:46;;;;;;;17.23;13.20;;;8.10;97.40;;;;;;5057927;28;20385;-88
2022/03/28 03:02:12;;;;;;;16.85;13.02;;;7.90;97.10;;;;;;5057621;28;20872;-87
2022/03/28 03:04:38;;;;;;;17.48;13.20;;;7.90;97.60;;;;;;5058325;28;20386;-87
2022/03/28 03:07:05;;;;;;;16.15;12.98;;;8.00;97.20;;;;;;5058165;28;20388;-87
2022/03/28 03:09:30;;;;;;;14.70;12.77;;;7.90;97.60;;;;;;5057524;28;20412;-87
2022/03/28 03:11:56;;;;;;;15.70;13.17;;;7.80;97.80;;;;;;5057631;28;20803;-87
2022/03/28 03:14:23;;;;;;;17.35;13.30;;;7.90;97.50;;;;;;5056947;28;20403;-87
2022/03/28 03:16:50;;;;;;;14.07;12.57;;;7.90;98.20;;;;;;5057337;28;20409;-87
2022/03/28 03:19:15;;;;;;;17.73;13.23;;;7.80;98.20;;;;;;5057737;28;20811;-87
2022/03/28 03:21:42;;;;;;;15.93;13.25;;;7.70;98.00;;;;;;5057110;28;20389;-87
2022/03/28 03:24:07;;;;;;;15.67;13.27;;;8.00;97.70;;;;;;5057322;28;20390;-87
2022/03/28 03:26:33;;;;;;;16.23;13.07;;;7.70;98.10;;;;;;5055922;28;20381;-87
2022/03/28 03:28:59;;;;;;;15.52;13.10;;;7.70;98.20;;;;;;5057691;28;20385;-87
2022/03/28 03:31:25;;;;;;;18.77;13.52;;;7.70;97.90;;;;;;5058102;28;20464;-87
2022/03/28 03:33:51;;;;;;;14.52;12.55;;;7.80;97.50;;;;;;5057292;28;20424;-87
2022/03/28 03:36:17;;;;;;;17.33;12.87;;;7.60;97.80;;;;;;5057803;28;20390;-88
2022/03/28 03:38:43;;;;;;;15.40;12.82;;;7.60;98.50;;;;;;5057330;28;20415;-88
2022/03/28 03:41:08;;;;;;;18.73;13.30;;;7.60;98.10;;;;;;5058625;28;20398;-87
2022/03/28 03:43:34;;;;;;;13.93;12.48;;;7.60;98.20;;;;;;5059338;28;20377;-87
2022/03/28 03:46:00;;;;;;;18.95;13.63;;;7.50;98.00;;;;;;5054058;28;20394;-87
2022/03/28 03:48:27;;;;;;;22.08;13.93;;;7.70;98.10;;;;;;5041686;28;20419;-87
2022/03/28 03:50:53;;;;;;;16.98;13.25;;;7.50;98.00;;;;;;5055909;28;20408;-87
2022/03/28 03:53:19;;;;;;;16.52;13.30;;;7.40;98.20;;;;;;5054391;28;20385;-87
2022/03/28 03:55:46;;;;;;;17.83;13.60;;;7.80;98.30;;;;;;5058788;28;20395;-87
2022/03/28 03:58:13;;;;;;;13.82;12.20;;;7.30;98.40;;;;;;5060957;28;20430;-87
2022/03/28 04:00:39;;;;;;;16.98;12.88;;;7.20;99.20;;;;;;5056285;28;20464;-86
2022/03/28 04:03:05;;;;;;;17.50;13.55;;;7.10;98.90;;;;;;5054462;28;20404;-87
2022/03/28 04:05:31;;;;;;;17.55;13.43;;;7.00;99.20;;;;;;5056949;28;20410;-87
2022/03/28 04:07:57;;;;;;;15.70;13.07;;;7.00;99.00;;;;;;5052910;28;20919;-86
2022/03/28 04:10:22;;;;;;;17.15;13.13;;;7.00;99.00;;;;;;5060553;28;20394;-87
2022/03/28 04:12:48;;;;;;;17.57;13.00;;;7.00;99.10;;;;;;5061626;28;20398;-85
2022/03/28 04:15:14;;;;;;;18.23;12.83;;;6.90;99.20;;;;;;5060627;28;20857;-86
2022/03/28 04:17:42;;;;;;;15.27;12.85;;;6.90;99.30;;;;;;5058646;28;20397;-87
2022/03/28 04:20:09;;;;;;;15.77;12.95;;;6.70;99.90;;;;;;5058980;28;20381;-87
2022/03/28 04:22:34;;;;;;;18.17;13.30;;;6.70;99.70;;;;;;5060449;28;20416;-87
2022/03/28 04:25:00;;;;;;;20.25;13.75;;;6.70;99.60;;;;;;5059945;28;20461;-87
2022/03/28 04:27:25;;;;;;;16.53;12.13;;;6.70;99.60;;;;;;5060620;28;20751;-87
2022/03/28 04:29:51;;;;;;;17.37;13.10;;;6.70;99.70;;;;;;5059393;28;20377;-88
2022/03/28 04:32:17;;;;;;;15.90;12.85;;;6.60;99.90;;;;;;5060474;28;20393;-87
2022/03/28 04:34:42;;;;;;;17.48;12.40;;;6.60;99.90;;;;;;5062705;28;20408;-87
2022/03/28 04:37:08;;;;;;;15.90;12.45;;;6.90;99.90;;;;;;5061613;28;20390;-88
2022/03/28 04:39:34;;;;;;;16.23;12.77;;;6.50;99.90;;;;;;5059667;28;20378;-87
2022/03/28 04:41:59;;;;;;;15.32;13.50;;;6.40;99.90;;;;;;5058536;28;20489;-87
2022/03/28 04:44:25;;;;;;;17.25;13.63;;;6.80;99.90;;;;;;5057340;28;20764;-87
2022/03/28 04:46:51;;;;;;;18.40;13.83;;;6.30;99.90;;;;;;5058889;28;20386;-87
2022/03/28 04:49:17;;;;;;;15.10;13.43;;;6.40;99.90;;;;;;5057856;28;20476;-87
2022/03/28 04:51:43;;;;;;;19.33;14.13;;;6.40;99.90;;;;;;5058102;28;20531;-87
2022/03/28 04:54:09;;;;;;;17.57;13.07;;;6.60;99.90;;;;;;5052916;28;20413;-87
2022/03/28 04:56:34;;;;;;;18.33;13.87;;;6.50;99.90;;;;;;5055963;28;20469;-87
2022/03/28 04:59:02;;;;;;;18.17;13.50;;;6.50;99.90;;;;;;5057754;28;20493;-87
2022/03/28 05:01:28;;;;;;;15.80;13.57;;;6.50;99.90;;;;;;5055410;28;20429;-87
2022/03/28 05:03:53;;;;;;;16.63;14.07;;;6.40;99.90;;;;;;5057889;28;20396;-87
2022/03/28 05:06:19;;;;;;;17.33;13.70;;;6.40;99.90;;;;;;5056382;28;20409;-87
2022/03/28 05:08:44;;;;;;;18.40;14.90;;;6.30;99.90;;;;;;5056208;28;20393;-87
2022/03/28 05:11:10;;;;;;;16.57;13.70;;;6.40;99.90;;;;;;5057793;28;20382;-87
2022/03/28 05:13:36;;;;;;;19.40;14.27;;;6.30;99.90;;;;;;5051134;28;20407;-87
2022/03/28 05:16:02;;;;;;;20.93;14.60;;;6.30;99.90;;;;;;5057507;28;20389;-87
2022/03/28 05:18:28;;;;;;;20.05;14.50;;;6.20;99.90;;;;;;5053211;28;20413;-88
2022/03/28 05:20:53;;;;;;;21.85;14.23;;;6.20;99.90;;;;;;5049940;28;20876;-87
2022/03/28 05:23:19;;;;;;;17.63;13.52;;;6.20;99.90;;;;;;5057523;28;20373;-87
2022/03/28 05:25:45;;;;;;;19.77;14.20;;;6.20;99.90;;;;;;5057579;28;20432;-87
2022/03/28 05:28:11;;;;;;;19.10;13.87;;;6.30;99.90;;;;;;5057525;28;20390;-87
2022/03/28 05:30:36;;;;;;;20.73;13.80;;;6.30;99.90;;;;;;5057774;28;20523;-87
2022/03/28 05:33:02;;;;;;;18.27;13.97;;;6.20;99.90;;;;;;5056970;28;20407;-87
2022/03/28 05:35:28;;;;;;;18.08;13.68;;;6.20;99.90;;;;;;5056461;28;20740;-87
2022/03/28 05:37:54;;;;;;;19.60;14.20;;;6.20;99.90;;;;;;5056664;28;20405;-87
2022/03/28 05:40:20;;;;;;;22.13;14.87;;;6.40;99.90;;;;;;5057183;28;20394;-87
2022/03/28 05:42:45;;;;;;;22.33;14.20;;;6.70;99.90;;;;;;5055717;28;20377;-86
2022/03/28 05:45:12;;;;;;;22.30;14.57;;;6.40;99.90;;;;;;5055884;28;20385;-87
2022/03/28 05:47:39;;;;;;;19.98;13.90;;;6.60;99.90;;;;;;5054626;28;20884;-87
2022/03/28 05:50:06;;;;;;;22.60;14.57;;;6.40;99.90;;;;;;5051554;28;20930;-86
2022/03/28 05:52:34;;;;;;;18.60;13.57;;;6.50;99.90;;;;;;5049203;28;20448;-87
2022/03/28 05:55:00;;;;;;;18.05;13.55;;;6.40;99.90;;;;;;5054084;28;20389;-87
2022/03/28 05:57:26;;;;;;;19.50;14.77;;;6.40;99.90;;;;;;5054192;28;20397;-87
2022/03/28 05:59:51;;;;;;;18.00;14.20;;;6.40;99.90;;;;;;5060314;28;20901;-87
2022/03/28 06:02:17;;;;;;;22.33;14.40;;;6.50;99.90;;;;;;5063575;28;20871;-87
2022/03/28 06:04:43;;;;;;;20.20;14.60;;;6.50;99.90;;;;;;5060294;28;20810;-87
2022/03/28 06:07:08;;;;;;;21.67;14.97;;;6.70;99.90;;;;;;5058162;28;21017;-87
2022/03/28 06:09:34;;;;;;;21.55;14.45;;;6.60;99.90;;;;;;5055483;28;20464;-87
2022/03/28 06:11:59;;;;;;;18.95;14.55;;;6.70;99.90;;;;;;5056220;28;20486;-87
2022/03/28 06:14:25;;;;;;;22.05;14.82;;;6.70;99.60;;;;;;5054000;28;20886;-87
2022/03/28 06:16:51;;;;;;;21.20;15.27;;;6.80;99.50;;;;;;5055867;28;20382;-87
2022/03/28 06:19:16;;;;;;;21.83;15.13;;;6.80;99.50;;;;;;5054118;28;20764;-87
2022/03/28 06:21:42;;;;;;;21.30;15.10;;;6.90;99.40;;;;;;5051946;28;20406;-86
2022/03/28 06:24:08;;;;;;;23.77;15.90;;;7.80;99.10;;;;;;5048783;28;20411;-85
2022/03/28 06:26:34;;;;;;;20.20;15.18;;;7.10;98.70;;;;;;5053044;28;20389;-85
2022/03/28 06:29:00;;;;;;;21.23;15.30;;;7.20;99.10;;;;;;5055545;28;20393;-86
2022/03/28 06:31:26;;;;;;;22.75;15.45;;;7.10;98.80;;;;;;5062246;28;20387;-86
2022/03/28 06:33:51;;;;;;;21.00;15.23;;;7.10;98.90;;;;;;5074041;28;20373;-86
2022/03/28 06:36:17;;;;;;;22.10;15.23;;;7.20;99.40;;;;;;5060785;28;20416;-86
2022/03/28 06:38:43;;;;;;;21.33;15.25;;;7.90;98.90;;;;;;5073604;28;20413;-86
2022/03/28 06:41:09;;;;;;;21.93;15.20;;;7.20;98.60;;;;;;5071005;28;20521;-87
2022/03/28 06:43:35;;;;;;;23.38;15.80;;;7.30;99.10;;;;;;5063282;28;20386;-87
2022/03/28 06:46:00;;;;;;;21.08;15.43;;;7.40;99.10;;;;;;5068546;28;20405;-87
2022/03/28 06:48:26;;;;;;;23.05;15.50;;;7.90;99.40;;;;;;5054767;28;20782;-87
2022/03/28 06:50:52;;;;;;;20.52;15.57;;;7.40;98.50;;;;;;5055590;28;20392;-87
2022/03/28 06:53:18;;;;;;;20.37;15.13;;;7.60;98.40;;;;;;5045797;28;20395;-87
2022/03/28 06:55:43;;;;;;;20.97;15.43;;;7.60;98.30;;;;;;5053046;28;20390;-87
2022/03/28 06:58:09;;;;;;;20.97;15.30;;;7.50;99.20;;;;;;5059703;28;20413;-87
2022/03/28 07:00:35;;;;;;;20.23;15.10;;;7.50;99.20;;;;;;5058177;28;20404;-88
2022/03/28 07:03:01;;;;;;;19.17;15.00;;;7.50;98.80;;;;;;5055853;28;20439;-87
2022/03/28 07:05:28;;;;;;;24.23;15.40;;;7.50;98.50;;;;;;5057036;28;20395;-87
2022/03/28 07:07:56;;;;;;;22.60;14.98;;;7.20;98.60;;;;;;5058422;28;20424;-87
2022/03/28 07:10:21;;;;;;;22.65;15.23;;;7.40;99.20;;;;;;5058464;28;20391;-87
2022/03/28 07:12:47;;;;;;;22.10;15.03;;;7.50;99.30;;;;;;5058252;28;20397;-87
2022/03/28 07:15:13;;;;;;;20.95;15.00;;;7.70;98.90;;;;;;5057234;28;20397;-87
2022/03/28 07:17:58;;;;;;;22.38;15.82;;;7.90;98.60;;;;;;5055449;28;20435;-88
2022/03/28 07:20:27;;;;;;;20.77;14.52;;;8.20;97.60;;;;;;5057137;28;20396;-87
2022/03/28 07:22:54;;;;;;;24.95;15.52;;;8.20;97.80;;;;;;5049587;28;20888;-88
2022/03/28 07:25:21;;;;;;;22.48;15.02;;;8.40;97.80;;;;;;5055687;28;20867;-87
2022/03/28 07:27:48;;;;;;;22.48;15.50;;;8.50;97.70;;;;;;5057880;28;20451;-86
2022/03/28 07:30:14;;;;;;;21.50;15.15;;;8.60;97.40;;;;;;5063309;28;20386;-86
2022/03/28 07:32:41;;;;;;;21.90;14.90;;;9.10;97.20;;;;;;5062218;28;20413;-86
2022/03/28 07:35:08;;;;;;;22.67;16.23;;;8.60;97.50;;;;;;5062900;28;20389;-86
2022/03/28 07:37:34;;;;;;;25.25;16.33;;;8.30;97.30;;;;;;5063273;28;20432;-86
2022/03/28 07:40:01;;;;;;;25.40;16.17;;;8.40;97.30;;;;;;5063061;28;20577;-86
2022/03/28 07:42:28;;;;;;;23.75;16.55;;;8.60;97.60;;;;;;5065949;28;20443;-86
2022/03/28 07:44:56;;;;;;;23.55;16.80;;;8.70;97.60;;;;;;5061132;28;20393;-87
2022/03/28 07:47:25;;;;;;;24.80;16.45;;;8.60;97.30;;;;;;5063594;28;20413;-87
2022/03/28 07:49:59;;;;;;;26.02;18.38;;;8.90;97.60;;;;;;5064152;28;20385;-87
2022/03/28 07:52:25;;;;;;;29.83;18.75;;;8.80;97.30;;;;;;5064922;28;20385;-86
2022/03/28 07:54:51;;;;;;;28.80;19.25;;;8.90;97.50;;;;;;5061128;28;20898;-86
2022/03/28 07:57:18;;;;;;;33.72;21.17;;;8.70;97.80;;;;;;5062653;28;20396;-87
2022/03/28 07:59:48;;;;;;;43.33;21.70;;;8.70;97.80;;;;;;5066814;28;20391;-86
2022/03/28 08:02:15;;;;;;;33.00;19.83;;;8.90;97.40;;;;;;5063090;28;20385;-87
2022/03/28 08:04:43;;;;;;;34.47;20.60;;;8.90;97.20;;;;;;5061534;28;20393;-87
2022/03/28 08:07:10;;;;;;;34.17;20.55;;;9.00;97.60;;;;;;5058456;28;20796;-86
2022/03/28 08:09:36;;;;;;;31.73;19.80;;;9.00;97.60;;;;;;5060249;28;20382;-86
2022/03/28 08:12:03;;;;;;;32.45;20.58;;;9.20;97.40;;;;;;5053583;28;20521;-86
2022/03/28 08:14:29;;;;;;;34.95;20.27;;;9.20;97.30;;;;;;5058143;28;20403;-86
2022/03/28 08:16:55;;;;;;;27.52;19.48;;;9.40;97.30;;;;;;5053435;28;20390;-87
2022/03/28 08:19:22;;;;;;;28.00;19.07;;;9.50;97.20;;;;;;5057415;28;20492;-86
2022/03/28 08:21:47;;;;;;;28.80;20.23;;;9.50;97.30;;;;;;5057794;28;20835;-86
2022/03/28 08:24:13;;;;;;;25.70;18.38;;;9.70;97.30;;;;;;5054339;28;20422;-87
2022/03/28 08:26:39;;;;;;;30.40;19.70;;;9.80;97.30;;;;;;5052412;28;20484;-87
2022/03/28 08:29:05;;;;;;;26.63;18.85;;;9.90;97.30;;;;;;5059140;28;20396;-86
2022/03/28 08:31:37;;;;;;;29.00;18.95;;;10.10;97.10;;;;;;5068128;22;20435;-86
2022/03/28 08:34:24;;;;;;;;;;;;;;;;;;;;;
2022/03/28 08:36:53;;;;;;;36.03;19.75;;;10.30;96.70;;;;;;5063918;28;20458;-86
2022/03/28 08:39:43;;;;;;;30.67;20.37;;;10.30;97.10;;;;;;5046973;28;20431;-86
2022/03/28 08:42:14;;;;;;;27.40;18.50;;;10.20;96.60;;;;;;5061515;28;20389;-86
2022/03/28 08:44:41;;;;;;;27.58;18.85;;;10.80;97.30;;;;;;5057438;28;20795;-86
2022/03/28 08:47:15;;;;;;;22.80;17.58;;;11.00;97.00;;;;;;5061790;28;20393;-86
2022/03/28 08:49:45;;;;;;;23.63;16.98;;;11.70;96.60;;;;;;5062334;28;20445;-86
2022/03/28 08:52:11;;;;;;;21.60;17.47;;;11.00;96.10;;;;;;5061723;28;20381;-87
2022/03/28 08:54:58;;;;;;;25.13;18.13;;;11.10;96.20;;;;;;5062644;28;20396;-87
2022/03/28 08:57:23;;;;;;;26.10;16.58;;;11.10;96.50;;;;;;5063177;28;20389;-86
2022/03/28 09:00:36;;;;;;;23.70;17.50;;;11.20;96.20;;;;;;5046592;28;20477;-86
2022/03/28 09:03:08;;;;;;;24.23;17.45;;;11.40;95.90;;;;;;5062767;28;20378;-86
2022/03/28 09:05:39;;;;;;;25.15;17.85;;;11.70;96.70;;;;;;5045828;28;20744;-86
2022/03/28 09:08:11;;;;;;;20.55;16.58;;;12.00;96.20;;;;;;5062896;28;20501;-86
2022/03/28 09:10:37;;;;;;;25.95;17.65;;;11.80;95.00;;;;;;5054725;28;20451;-85
2022/03/28 09:13:51;;;;;;;26.98;18.60;;;12.00;95.40;;;;;;5040135;28;20413;-86
2022/03/28 09:16:20;;;;;;;26.65;17.20;;;12.10;95.20;;;;;;5037666;28;20385;-86
2022/03/28 09:18:45;;;;;;;19.25;15.48;;;12.20;94.90;;;;;;5054790;28;20485;-86
2022/03/28 09:21:16;;;;;;;20.75;16.55;;;12.40;94.60;;;;;;5044021;28;20425;-86
2022/03/28 09:23:52;;;;;;;176.02;22.83;;;12.50;93.70;;;;;;5061676;28;20389;-86
2022/03/28 09:26:34;;;;;;;21.52;15.95;;;12.70;93.50;;;;;;5039997;28;20390;-85
2022/03/28 09:29:06;;;;;;;20.50;16.03;;;12.70;94.10;;;;;;5046320;28;20467;-86
2022/03/28 09:31:47;;;;;;;22.70;16.23;;;12.80;93.40;;;;;;5047547;28;20395;-86
2022/03/28 09:34:18;;;;;;;21.60;16.55;;;12.80;93.00;;;;;;5038474;28;20422;-89
2022/03/28 09:36:57;;;;;;;19.77;16.38;;;13.10;94.00;;;;;;5055131;28;20388;-87
2022/03/28 09:39:28;;;;;;;21.70;16.57;;;13.30;93.20;;;;;;5038886;28;20405;-87
2022/03/28 09:42:11;;;;;;;20.13;16.33;;;13.60;92.10;;;;;;5048858;28;20397;-87
2022/03/28 09:44:51;;;;;;;20.25;15.60;;;13.40;91.50;;;;;;5063776;28;20409;-86
2022/03/28 09:47:55;;;;;;;19.73;16.63;;;13.60;92.80;;;;;;5053073;28;20387;-87
2022/03/28 09:50:49;;;;;;;20.35;16.02;;;13.90;91.90;;;;;;5064827;28;20393;-87
2022/03/28 09:53:16;;;;;;;21.65;16.80;;;14.30;92.20;;;;;;5053856;28;20383;-87
2022/03/28 09:56:06;;;;;;;20.52;16.20;;;14.10;90.90;;;;;;5034610;28;20424;-87
2022/03/28 09:58:42;;;;;;;21.90;16.27;;;14.10;91.20;;;;;;5058601;28;20426;-87
2022/03/28 10:01:46;;;;;;;22.35;16.48;;;14.40;91.30;;;;;;5039649;28;20484;-87
2022/03/28 10:04:21;;;;;;;32.65;16.27;;;14.40;90.90;;;;;;5046653;28;20393;-87
2022/03/28 10:06:57;;;;;;;28.30;15.95;;;14.70;90.90;;;;;;5059436;28;20385;-87
2022/03/28 10:09:29;;;;;;;23.95;16.60;;;15.10;90.30;;;;;;5046650;28;20426;-88
2022/03/28 10:11:55;;;;;;;33.05;17.33;;;14.60;91.10;;;;;;5058189;28;20385;-88
2022/03/28 10:14:25;;;;;;;30.85;17.50;;;14.80;91.00;;;;;;5049605;28;20418;-88
2022/03/28 10:17:16;;;;;;;22.42;16.70;;;15.20;90.30;;;;;;5042255;28;20784;-87
2022/03/28 10:20:29;;;;;;;23.10;16.97;;;15.20;90.30;;;;;;5026858;28;20406;-87
2022/03/28 10:22:56;;;;;;;24.05;17.83;;;15.40;90.40;;;;;;5035600;28;20447;-88
2022/03/28 10:25:24;;;;;;;24.60;17.15;;;15.60;90.50;;;;;;5055439;28;20400;-87
2022/03/28 10:27:54;;;;;;;23.40;18.08;;;15.50;90.70;;;;;;5056595;28;20394;-87
2022/03/28 10:30:30;;;;;;;22.88;17.63;;;16.10;90.90;;;;;;5041733;28;20388;-88
2022/03/28 10:33:44;;;;;;;22.80;18.00;;;15.90;90.30;;;;;;5028281;28;20770;-86
2022/03/28 10:36:38;;;;;;;25.47;18.00;;;16.00;90.70;;;;;;4975205;28;20455;-85
2022/03/28 10:39:38;;;;;;;24.33;17.50;;;16.00;90.30;;;;;;4970518;28;20436;-88
2022/03/28 10:42:13;;;;;;;21.58;17.63;;;16.60;88.80;;;;;;5050201;28;20408;-88
2022/03/28 10:45:21;;;;;;;22.65;17.48;;;15.90;89.40;;;;;;5055626;28;20384;-88
2022/03/28 10:47:54;;;;;;;26.17;18.27;;;16.70;91.60;;;;;;4965510;28;20435;-88
2022/03/28 10:50:28;;;;;;;25.50;17.85;;;16.50;87.60;;;;;;5058177;28;20405;-88
2022/03/28 10:53:16;;;;;;;23.90;17.93;;;16.60;89.50;;;;;;5055785;28;20747;-88
2022/03/28 10:55:51;;;;;;;23.67;17.73;;;16.30;88.10;;;;;;5051857;28;20395;-88
2022/03/28 10:58:56;;;;;;;24.55;17.60;;;17.10;89.20;;;;;;5033301;28;20403;-88
2022/03/28 11:01:34;;;;;;;23.30;17.30;;;17.10;88.10;;;;;;4975997;28;20397;-87
2022/03/28 11:04:26;;;;;;;22.60;17.95;;;17.40;87.80;;;;;;5047446;28;20752;-88
2022/03/28 11:07:11;;;;;;;23.63;17.38;;;17.60;86.50;;;;;;5013704;28;20432;-87
2022/03/28 11:09:51;;;;;;;27.38;19.42;;;17.80;90.20;;;;;;5059079;28;20381;-85
2022/03/28 11:12:20;;;;;;;25.90;18.10;;;18.00;87.20;;;;;;5051348;28;20834;-86
2022/03/28 11:14:55;;;;;;;24.35;17.38;;;18.10;85.60;;;;;;5054205;28;20748;-86
2022/03/28 11:17:22;;;;;;;23.92;17.38;;;18.40;87.70;;;;;;5045628;28;20390;-86
2022/03/28 11:20:20;;;;;;;28.70;18.53;;;18.70;85.40;;;;;;5054286;28;20797;-87
2022/03/28 11:23:15;;;;;;;23.67;17.98;;;18.80;84.50;;;;;;5052830;28;20374;-86
2022/03/28 11:25:55;;;;;;;27.40;18.88;;;19.00;84.90;;;;;;5034993;28;20468;-86
2022/03/28 11:28:24;;;;;;;24.08;18.40;;;18.90;81.90;;;;;;5036172;28;20393;-86
2022/03/28 11:31:20;;;;;;;25.03;18.67;;;19.30;82.20;;;;;;5046080;28;20399;-87
2022/03/28 11:33:47;;;;;;;25.48;18.83;;;19.00;83.40;;;;;;5047905;28;20411;-87
2022/03/28 11:36:15;;;;;;;22.58;17.38;;;19.20;81.50;;;;;;5038332;28;20457;-87
2022/03/28 11:38:49;;;;;;;30.87;18.37;;;19.20;81.50;;;;;;5049578;28;20405;-87
2022/03/28 11:41:25;;;;;;;23.20;17.15;;;19.50;79.00;;;;;;5029449;28;20409;-87
2022/03/28 11:43:56;;;;;;;20.60;17.63;;;19.10;78.20;;;;;;5011220;28;20394;-87
2022/03/28 11:46:33;;;;;;;27.10;17.10;;;18.90;78.50;;;;;;5049404;28;20735;-86
2022/03/28 11:49:04;;;;;;;21.77;16.67;;;19.20;81.10;;;;;;5034538;28;20385;-87
2022/03/28 11:51:32;;;;;;;20.42;17.00;;;19.90;82.30;;;;;;5031555;28;20896;-87
2022/03/28 11:53:59;;;;;;;20.08;17.08;;;20.10;80.50;;;;;;5032309;28;20472;-87
2022/03/28 11:59:21;;;;;;;19.57;17.27;;;20.50;78.20;;;;;;5047667;28;20450;-87
2022/03/28 12:01:49;;;;;;;19.30;16.77;;;20.40;75.00;;;;;;5043449;28;20750;-87
2022/03/28 12:04:18;;;;;;;16.15;14.45;;;20.30;73.10;;;;;;5051028;28;20385;-86
2022/03/28 12:06:45;;;;;;;20.83;16.75;;;20.50;74.90;;;;;;5049369;28;20377;-86
2022/03/28 12:09:16;;;;;;;19.02;16.13;;;20.70;75.20;;;;;;5045357;28;20385;-87
2022/03/28 12:11:48;;;;;;;20.48;15.85;;;20.70;76.50;;;;;;5042600;28;20387;-87
2022/03/28 12:14:14;;;;;;;20.42;16.40;;;21.20;75.30;;;;;;5051244;28;20396;-87
2022/03/28 12:16:48;;;;;;;17.55;15.68;;;21.20;73.80;;;;;;5051410;28;20447;-87
2022/03/28 12:19:22;;;;;;;21.02;16.80;;;21.20;71.60;;;;;;5056458;28;20496;-87
2022/03/28 12:21:49;;;;;;;18.05;15.55;;;21.40;72.20;;;;;;5043184;28;20377;-87
2022/03/28 12:24:15;;;;;;;17.27;15.48;;;21.40;72.60;;;;;;5057094;28;20384;-87
2022/03/28 12:26:47;;;;;;;15.48;13.90;;;21.60;74.70;;;;;;5056516;28;20397;-86
2022/03/28 12:29:12;;;;;;;13.70;12.13;;;21.10;65.20;;;;;;5046545;28;20389;-87
2022/03/28 12:31:47;;;;;;;13.18;11.85;;;21.10;66.40;;;;;;5048302;28;20393;-87
2022/03/28 12:34:13;;;;;;;19.17;13.03;;;21.40;64.30;;;;;;5029870;28;20459;-86
2022/03/28 12:36:39;;;;;;;16.33;13.98;;;21.30;65.00;;;;;;5046679;28;20888;-86
2022/03/28 12:39:08;;;;;;;15.20;13.65;;;21.20;66.30;;;;;;5054038;28;20405;-87
2022/03/28 12:41:45;;;;;;;18.33;13.98;;;20.80;65.60;;;;;;5044060;28;20383;-87
2022/03/28 12:44:16;;;;;;;18.77;14.10;;;20.60;69.80;;;;;;5054603;28;20377;-87
2022/03/28 12:46:42;;;;;;;17.63;13.43;;;21.10;67.80;;;;;;5023416;28;20401;-87
2022/03/28 12:49:16;;;;;;;16.27;14.25;;;21.20;67.90;;;;;;5038809;28;20386;-87
2022/03/28 12:51:42;;;;;;;14.88;13.32;;;21.30;68.10;;;;;;5056746;28;20721;-87
2022/03/28 12:54:18;;;;;;;15.80;13.60;;;21.20;65.20;;;;;;5038417;28;20421;-87